Time;durP1;ratioP1;P1;durP2;ratioP2;P2;SDS_P1;SDS_P2;PMS_P1;PMS_P2;Temp;Humidity;BMP_temperature;BMP_pressure;BME280_temperature;BME280_humidity;BME280_pressure;Samples;Min_cycle;Max_cycle;Signal;HPM_P1;HPM_P2
2021/09/23 00:01:58;;;;;;;7.40;5.40;;;;;;;18.64;59.90;102268.63;5020813;28;20030;-77
2021/09/23 00:04:34;;;;;;;5.03;2.55;;;;;;;18.59;60.21;102266.25;5041281;28;20032;-77
2021/09/23 00:07:03;;;;;;;6.75;2.47;;;;;;;18.59;60.24;102273.31;5024175;28;20053;-77
2021/09/23 00:09:28;;;;;;;;;;;;;;;18.60;60.14;102261.78;5007535;28;20057;-77
2021/09/23 00:11:53;;;;;;;2.60;2.40;;;;;;;18.54;60.16;102257.66;5022887;28;19948;-77
2021/09/23 00:14:19;;;;;;;5.00;3.38;;;;;;;18.67;60.11;102259.69;5022817;28;20355;-78
2021/09/23 00:16:44;;;;;;;3.70;3.20;;;;;;;18.54;60.10;102262.97;5022474;28;20068;-78
2021/09/23 00:19:10;;;;;;;10.40;6.13;;;;;;;18.56;60.05;102253.13;5023008;28;20037;-77
2021/09/23 00:21:35;;;;;;;3.78;2.72;;;;;;;18.60;60.13;102248.53;5014948;28;20053;-77
2021/09/23 00:24:00;;;;;;;3.13;2.92;;;;;;;18.52;60.16;102243.63;5006800;28;20097;-78
2021/09/23 00:26:26;;;;;;;5.22;2.85;;;;;;;18.64;59.98;102239.44;5026067;28;20037;-78
2021/09/23 00:28:51;;;;;;;4.22;3.58;;;;;;;18.57;60.21;102241.59;5029263;28;20021;-78
2021/09/23 00:31:17;;;;;;;3.60;2.40;;;;;;;18.58;60.01;102235.31;5025106;28;20236;-78
2021/09/23 00:33:42;;;;;;;6.63;4.72;;;;;;;18.60;60.20;102240.56;5036766;28;20049;-77
2021/09/23 00:36:08;;;;;;;8.07;4.90;;;;;;;18.64;60.09;102236.78;5026165;28;20041;-77
2021/09/23 00:38:33;;;;;;;3.13;2.72;;;;;;;18.55;60.03;102235.47;5033373;28;20329;-77
2021/09/23 00:40:59;;;;;;;3.38;3.08;;;;;;;18.53;60.32;102229.41;5043125;28;20107;-77
2021/09/23 00:43:24;;;;;;;2.55;2.35;;;;;;;18.56;60.08;102237.22;5007621;28;20033;-77
2021/09/23 00:45:50;;;;;;;3.10;2.78;;;;;;;18.59;60.28;102230.88;5026752;28;20038;-77
2021/09/23 00:48:15;;;;;;;2.40;2.20;;;;;;;18.55;59.96;102240.78;5018314;28;20324;-77
2021/09/23 00:50:40;;;;;;;2.10;2.00;;;;;;;18.55;60.09;102234.63;5038635;28;20041;-77
2021/09/23 00:53:07;;;;;;;2.17;2.08;;;;;;;18.47;60.46;102234.19;5041932;28;20203;-77
2021/09/23 00:55:32;;;;;;;2.65;2.45;;;;;;;18.59;59.91;102239.72;5019913;28;20088;-77
2021/09/23 00:57:58;;;;;;;2.97;2.30;;;;;;;18.54;60.09;102247.03;5015837;28;20041;-77
2021/09/23 01:00:25;;;;;;;4.97;2.50;;;;;;;18.55;60.22;102243.44;5002828;28;20033;-77
2021/09/23 01:03:10;;;;;;;4.00;2.58;;;;;;;18.59;60.03;102234.41;4997863;28;20113;-77
2021/09/23 01:05:35;;;;;;;2.35;2.22;;;;;;;18.44;60.33;102229.03;4993098;28;20202;-77
2021/09/23 01:08:01;;;;;;;2.78;2.13;;;;;;;18.45;60.47;102220.16;4992302;28;20070;-77
2021/09/23 01:10:26;;;;;;;2.50;2.22;;;;;;;18.53;60.30;102220.59;5006562;28;20073;-78
2021/09/23 01:12:52;;;;;;;2.95;2.40;;;;;;;18.50;60.27;102211.00;5003775;28;20087;-77
2021/09/23 01:15:18;;;;;;;4.78;2.40;;;;;;;18.55;60.18;102216.06;5003593;28;20057;-78
2021/09/23 01:17:44;;;;;;;3.80;2.00;;;;;;;18.47;60.31;102219.13;5020868;28;20427;-77
2021/09/23 01:20:09;;;;;;;2.88;2.47;;;;;;;18.44;60.85;102219.28;5004098;28;20045;-77
2021/09/23 01:22:35;;;;;;;3.92;2.13;;;;;;;18.48;60.46;102209.34;4987405;28;20042;-78
2021/09/23 01:25:01;;;;;;;3.40;2.40;;;;;;;18.39;60.79;102208.03;5003818;28;20249;-77
2021/09/23 01:27:27;;;;;;;3.17;2.10;;;;;;;18.47;60.50;102208.50;4988520;28;20040;-77
2021/09/23 01:29:52;;;;;;;2.65;2.20;;;;;;;18.42;60.61;102200.78;5000502;28;20042;-78
2021/09/23 01:32:19;;;;;;;5.75;4.72;;;;;;;18.35;60.49;102198.53;5000283;28;20118;-77
2021/09/23 01:34:45;;;;;;;2.85;2.65;;;;;;;18.52;60.07;102205.59;5016309;28;20057;-77
2021/09/23 01:37:10;;;;;;;3.00;2.53;;;;;;;18.42;60.42;102203.44;5004471;28;20042;-78
2021/09/23 01:39:36;;;;;;;3.17;2.30;;;;;;;18.41;60.64;102193.78;4972389;28;20034;-77
2021/09/23 01:42:01;;;;;;;3.33;3.03;;;;;;;18.43;60.54;102196.34;4977418;28;20034;-77
2021/09/23 01:44:27;;;;;;;4.72;3.05;;;;;;;18.33;60.59;102188.00;5003669;28;20034;-77
2021/09/23 01:46:52;;;;;;;4.72;3.55;;;;;;;18.37;60.45;102196.66;5026019;28;20029;-77
2021/09/23 01:49:18;;;;;;;2.85;2.30;;;;;;;18.38;60.66;102201.03;5021030;28;20047;-77
2021/09/23 01:51:43;;;;;;;3.33;2.35;;;;;;;18.42;60.56;102195.47;5007919;28;20395;-77
2021/09/23 01:54:09;;;;;;;2.70;2.30;;;;;;;18.41;60.63;102182.31;5021865;28;20365;-78
2021/09/23 01:56:34;;;;;;;2.55;2.13;;;;;;;18.36;60.54;102176.41;5003560;28;20064;-77
2021/09/23 01:59:00;;;;;;;3.25;2.70;;;;;;;18.32;60.79;102177.47;5007230;28;20045;-77
2021/09/23 02:01:25;;;;;;;6.30;2.78;;;;;;;18.35;60.69;102169.38;5009940;28;20038;-77
2021/09/23 02:03:50;;;;;;;5.50;3.63;;;;;;;18.34;60.55;102170.31;5021680;28;20032;-77
2021/09/23 02:06:16;;;;;;;3.53;2.97;;;;;;;18.38;60.51;102155.94;5016141;28;20106;-78
2021/09/23 02:08:41;;;;;;;3.45;2.17;;;;;;;18.33;60.71;102148.22;5021864;28;20328;-78
2021/09/23 02:11:07;;;;;;;3.72;2.30;;;;;;;18.33;60.80;102150.03;4990116;28;20029;-78
2021/09/23 02:13:32;;;;;;;3.63;2.53;;;;;;;18.38;60.75;102150.66;5006309;28;20095;-78
2021/09/23 02:15:58;;;;;;;3.50;2.45;;;;;;;18.45;60.22;102141.44;5006920;28;20384;-78
2021/09/23 02:18:23;;;;;;;2.47;2.28;;;;;;;18.31;60.77;102131.53;5006138;28;20026;-78
2021/09/23 02:20:49;;;;;;;8.77;3.00;;;;;;;18.31;60.88;102115.63;4989692;28;20029;-77
2021/09/23 02:23:14;;;;;;;2.42;2.15;;;;;;;18.41;60.51;102111.56;4997792;28;20048;-77
2021/09/23 02:25:39;;;;;;;3.53;3.22;;;;;;;18.28;60.97;102106.97;5020310;28;20037;-77
2021/09/23 02:28:05;;;;;;;5.15;3.10;;;;;;;18.26;60.92;102104.41;4986250;28;20030;-77
2021/09/23 02:30:30;;;;;;;2.40;2.20;;;;;;;18.27;61.24;102098.19;5002980;28;20458;-77
2021/09/23 02:32:56;;;;;;;4.63;3.03;;;;;;;18.31;60.85;102088.25;5023665;28;20389;-77
2021/09/23 02:35:22;;;;;;;2.92;2.40;;;;;;;18.38;60.80;102087.84;4990499;28;20026;-78
2021/09/23 02:37:47;;;;;;;3.30;2.28;;;;;;;18.35;60.75;102076.53;5023804;28;20041;-78
2021/09/23 02:40:13;;;;;;;3.78;3.42;;;;;;;18.31;60.95;102075.00;5009282;28;20053;-77
2021/09/23 02:42:38;;;;;;;3.53;2.15;;;;;;;18.32;60.78;102068.75;5010399;28;20351;-78
2021/09/23 02:45:04;;;;;;;4.13;3.38;;;;;;;18.44;60.65;102073.38;5026335;28;20479;-77
2021/09/23 02:47:30;;;;;;;2.10;1.90;;;;;;;18.32;60.70;102077.56;5009815;28;20022;-77
2021/09/23 02:49:55;;;;;;;5.72;4.05;;;;;;;18.28;60.72;102065.44;5025049;28;20076;-77
2021/09/23 02:52:20;;;;;;;3.42;2.70;;;;;;;18.30;61.25;102060.91;5008894;28;20256;-78
2021/09/23 02:54:46;;;;;;;4.30;2.30;;;;;;;18.29;61.11;102055.66;5027399;28;20033;-78
2021/09/23 02:57:11;;;;;;;2.42;2.20;;;;;;;18.40;60.60;102050.63;5020964;28;20037;-77
2021/09/23 02:59:37;;;;;;;2.50;2.22;;;;;;;18.40;60.57;102058.59;5011589;28;20191;-77
2021/09/23 03:02:02;;;;;;;3.92;3.13;;;;;;;18.32;60.93;102053.72;5012584;28;20032;-77
2021/09/23 03:04:28;;;;;;;5.05;2.47;;;;;;;18.35;60.99;102060.63;5009976;28;20108;-78
2021/09/23 03:06:53;;;;;;;2.95;2.20;;;;;;;18.27;61.12;102061.06;5032331;28;20022;-78
2021/09/23 03:09:19;;;;;;;4.43;4.03;;;;;;;18.28;61.29;102061.91;5013311;28;20037;-78
2021/09/23 03:11:44;;;;;;;3.63;2.42;;;;;;;18.40;60.88;102062.09;5014701;28;20021;-77
2021/09/23 03:14:10;;;;;;;6.22;4.28;;;;;;;18.27;60.88;102057.56;5009576;28;20048;-77
2021/09/23 03:16:35;;;;;;;3.00;2.80;;;;;;;18.37;60.77;102064.06;5008364;28;20042;-78
2021/09/23 03:19:01;;;;;;;2.20;2.05;;;;;;;18.42;60.82;102060.22;5025194;28;20075;-78
2021/09/23 03:21:26;;;;;;;2.83;2.60;;;;;;;18.38;60.90;102057.81;5006526;28;20032;-77
2021/09/23 03:23:51;;;;;;;5.15;2.50;;;;;;;18.35;61.14;102052.69;5010352;28;20037;-77
2021/09/23 03:26:17;;;;;;;3.17;2.40;;;;;;;18.39;60.63;102040.94;5028933;28;20033;-78
2021/09/23 03:28:42;;;;;;;2.60;2.38;;;;;;;18.26;61.41;102039.91;5019377;28;20038;-78
2021/09/23 03:31:08;;;;;;;3.03;2.38;;;;;;;18.33;60.90;102043.94;4984948;28;20025;-77
2021/09/23 03:33:33;;;;;;;2.78;2.40;;;;;;;18.34;61.03;102038.56;5033480;28;20106;-77
2021/09/23 03:35:58;;;;;;;3.42;2.50;;;;;;;18.32;61.07;102037.81;5032641;28;20045;-78
2021/09/23 03:38:24;;;;;;;8.05;2.47;;;;;;;18.41;60.84;102039.94;5020535;28;20026;-77
2021/09/23 03:40:50;;;;;;;3.97;3.17;;;;;;;18.35;60.96;102032.31;5035353;28;20077;-77
2021/09/23 03:43:19;;;;;;;4.05;2.83;;;;;;;18.24;61.49;102032.03;5016837;28;20060;-77
2021/09/23 03:45:44;;;;;;;3.45;2.40;;;;;;;18.22;61.38;102039.22;5025574;28;20089;-77
2021/09/23 03:48:10;;;;;;;3.08;2.50;;;;;;;18.31;61.45;102035.22;5013524;28;20332;-77
2021/09/23 03:50:35;;;;;;;3.13;2.80;;;;;;;18.33;60.99;102033.34;5037781;28;20034;-78
2021/09/23 03:53:01;;;;;;;3.17;2.58;;;;;;;18.32;61.06;102034.28;5014218;28;20025;-77
2021/09/23 03:55:26;;;;;;;3.00;2.40;;;;;;;18.35;61.21;102045.56;5021622;28;20036;-77
2021/09/23 03:57:51;;;;;;;6.55;2.60;;;;;;;18.34;61.21;102043.03;5004200;28;20026;-78
2021/09/23 04:00:25;;;;;;;3.10;2.25;;;;;;;18.38;61.21;102053.38;5027367;28;20104;-78
2021/09/23 04:02:51;;;;;;;4.40;2.70;;;;;;;18.37;61.07;102049.03;5031869;28;20097;-77
2021/09/23 04:05:16;;;;;;;3.10;2.20;;;;;;;18.30;61.30;102046.75;5022223;28;20427;-78
2021/09/23 04:07:41;;;;;;;3.40;2.45;;;;;;;18.30;61.44;102046.75;5022102;28;20038;-77
2021/09/23 04:10:08;;;;;;;6.32;2.22;;;;;;;18.31;61.39;102045.84;5012680;28;20049;-78
2021/09/23 04:12:33;;;;;;;2.45;2.20;;;;;;;18.31;61.49;102044.03;4999562;28;20036;-78
2021/09/23 04:14:59;;;;;;;3.08;2.50;;;;;;;18.36;61.41;102044.63;5023575;28;20233;-77
2021/09/23 04:17:24;;;;;;;3.67;2.97;;;;;;;18.35;61.26;102037.59;4973040;28;20060;-77
2021/09/23 04:19:50;;;;;;;3.33;2.13;;;;;;;18.27;61.24;102033.69;4989581;28;20034;-77
2021/09/23 04:22:15;;;;;;;2.92;2.35;;;;;;;18.37;61.43;102038.41;5005457;28;20041;-77
2021/09/23 04:24:41;;;;;;;2.50;2.30;;;;;;;18.38;61.38;102040.09;5005810;28;20045;-77
2021/09/23 04:27:06;;;;;;;2.75;2.28;;;;;;;18.35;61.55;102032.31;5023219;28;20025;-77
2021/09/23 04:29:31;;;;;;;4.53;2.63;;;;;;;18.32;61.59;102019.25;5005557;28;20237;-77
2021/09/23 04:31:57;;;;;;;2.67;2.28;;;;;;;18.33;61.37;102010.31;5006369;28;20367;-78
2021/09/23 04:34:22;;;;;;;3.50;2.38;;;;;;;18.32;61.52;101998.03;5023082;28;20233;-78
2021/09/23 04:36:48;;;;;;;6.35;2.50;;;;;;;18.29;61.53;101997.34;4992703;28;20099;-78
2021/09/23 04:39:16;;;;;;;6.47;2.70;;;;;;;18.29;61.70;101990.22;5008677;28;20037;-77
2021/09/23 04:41:41;;;;;;;2.45;2.25;;;;;;;18.28;61.56;101985.00;5032060;28;20042;-80
2021/09/23 04:44:07;;;;;;;4.05;3.28;;;;;;;18.40;61.17;101984.34;4997078;28;20034;-77
2021/09/23 04:46:32;;;;;;;3.35;3.05;;;;;;;18.38;61.19;101984.41;5014048;28;20038;-77
2021/09/23 04:48:58;;;;;;;2.92;2.65;;;;;;;18.37;61.30;101965.94;5041780;28;20047;-78
2021/09/23 04:51:24;;;;;;;8.00;5.32;;;;;;;18.31;61.39;101951.22;5030867;28;20025;-77
2021/09/23 04:53:49;;;;;;;2.90;2.70;;;;;;;18.32;61.38;101949.41;4998498;28;20349;-78
2021/09/23 04:56:15;;;;;;;5.35;4.82;;;;;;;18.33;61.28;101944.03;4981904;28;20018;-78
2021/09/23 04:58:40;;;;;;;5.88;3.65;;;;;;;18.34;61.24;101951.06;5030534;28;20047;-78
2021/09/23 05:01:06;;;;;;;7.25;5.03;;;;;;;18.28;61.56;101938.16;5044132;28;20037;-78
2021/09/23 05:03:31;;;;;;;5.50;2.72;;;;;;;18.42;61.17;101940.00;5042010;28;20033;-77
2021/09/23 05:05:57;;;;;;;7.28;5.38;;;;;;;18.39;61.07;101942.81;5015430;28;20032;-78
2021/09/23 05:08:23;;;;;;;5.55;2.95;;;;;;;18.35;61.27;101938.66;5039887;28;20038;-78
2021/09/23 05:10:49;;;;;;;3.42;3.13;;;;;;;18.27;61.49;101938.22;5017552;28;20220;-78
2021/09/23 05:13:14;;;;;;;5.32;2.47;;;;;;;18.27;61.73;101932.94;5013329;28;20022;-78
2021/09/23 05:15:40;;;;;;;4.60;2.92;;;;;;;18.28;61.57;101930.19;5018059;28;20025;-78
2021/09/23 05:18:05;;;;;;;6.80;5.05;;;;;;;18.39;61.33;101932.22;5026930;28;20096;-77
2021/09/23 05:20:31;;;;;;;7.85;4.13;;;;;;;18.44;62.77;101927.53;5014464;28;20061;-78
2021/09/23 05:22:56;;;;;;;24.52;6.85;;;;;;;18.41;64.86;101917.94;5004367;28;20101;-77
2021/09/23 05:25:22;;;;;;;19.33;6.78;;;;;;;18.48;64.25;101922.91;5039921;28;20120;-78
2021/09/23 05:27:48;;;;;;;16.58;6.28;;;;;;;18.37;64.82;101915.53;5021659;28;20048;-78
2021/09/23 05:30:13;;;;;;;15.05;6.03;;;;;;;18.38;65.01;101917.28;5039307;28;20108;-78
2021/09/23 05:32:39;;;;;;;19.52;6.13;;;;;;;18.35;65.25;101918.28;5049282;28;20037;-78
2021/09/23 05:35:05;;;;;;;22.20;9.13;;;;;;;18.38;65.09;101915.47;5032129;28;20041;-77
2021/09/23 05:37:31;;;;;;;15.55;7.80;;;;;;;18.34;65.00;101921.03;4993153;28;20335;-78
2021/09/23 05:39:56;;;;;;;23.55;6.90;;;;;;;18.38;64.80;101922.56;5032991;28;20060;-78
2021/09/23 05:42:22;;;;;;;11.63;6.53;;;;;;;18.47;64.35;101916.75;5051436;28;20029;-77
2021/09/23 05:44:47;;;;;;;18.98;5.70;;;;;;;18.47;63.58;101916.75;5018774;28;20097;-78
2021/09/23 05:47:12;;;;;;;22.75;6.70;;;;;;;18.52;63.78;101911.16;5027295;28;20238;-77
2021/09/23 05:49:38;;;;;;;12.20;5.00;;;;;;;18.51;63.68;101920.91;5017204;28;20033;-78
2021/09/23 05:52:04;;;;;;;15.10;5.22;;;;;;;18.44;63.83;101916.91;5029030;28;20104;-77
2021/09/23 05:54:30;;;;;;;13.70;5.32;;;;;;;18.52;63.66;101916.47;5035667;28;20048;-78
2021/09/23 05:56:55;;;;;;;14.00;6.05;;;;;;;18.50;63.63;101919.22;5010901;28;20020;-77
2021/09/23 05:59:24;;;;;;;12.57;5.32;;;;;;;18.49;63.32;101914.00;5022497;28;20109;-78
2021/09/23 06:01:49;;;;;;;14.63;6.30;;;;;;;18.58;63.27;101916.13;5021201;28;20337;-78
2021/09/23 06:04:15;;;;;;;11.15;5.93;;;;;;;18.60;63.02;101917.75;5012973;28;20034;-78
2021/09/23 06:06:40;;;;;;;18.50;5.38;;;;;;;18.52;63.19;101922.66;5002417;28;20037;-77
2021/09/23 06:09:05;;;;;;;10.32;4.63;;;;;;;18.60;63.03;101916.91;5003297;28;20038;-78
2021/09/23 06:11:32;;;;;;;12.05;5.05;;;;;;;18.59;62.88;101925.78;5008470;28;20180;-78
2021/09/23 06:13:58;;;;;;;13.80;5.55;;;;;;;18.80;62.67;101934.31;5038123;28;20045;-77
2021/09/23 06:16:23;;;;;;;13.52;4.82;;;;;;;18.93;62.71;101935.34;5018901;28;20460;-79
2021/09/23 06:18:49;;;;;;;14.60;4.70;;;;;;;18.96;62.21;101936.97;5001556;28;20051;-79
2021/09/23 06:21:14;;;;;;;21.55;5.30;;;;;;;19.10;62.08;101938.78;5041491;28;20039;-79
2021/09/23 06:23:39;;;;;;;19.27;6.13;;;;;;;19.09;61.92;101937.09;5005344;28;20033;-81
2021/09/23 06:26:05;;;;;;;15.65;4.88;;;;;;;19.13;61.77;101946.59;5004085;28;20384;-79
2021/09/23 06:28:31;;;;;;;19.35;5.30;;;;;;;19.24;61.37;101938.81;5001392;28;20443;-79
2021/09/23 06:30:57;;;;;;;15.82;5.28;;;;;;;19.25;61.29;101929.09;5020324;28;20029;-79
2021/09/23 06:33:22;;;;;;;15.70;4.97;;;;;;;19.26;61.33;101923.66;5014460;28;20047;-79
2021/09/23 06:35:48;;;;;;;14.98;5.60;;;;;;;19.30;61.18;101924.31;5035390;28;20438;-79
2021/09/23 06:38:13;;;;;;;15.38;5.35;;;;;;;19.33;61.41;101922.34;5006295;28;20079;-80
2021/09/23 06:40:39;;;;;;;13.35;5.90;;;;;;;19.41;61.25;101921.00;5026847;28;20065;-79
2021/09/23 06:43:04;;;;;;;12.45;5.07;;;;;;;19.43;61.44;101919.13;4986396;28;20034;-79
2021/09/23 06:45:30;;;;;;;11.85;5.20;;;;;;;19.42;61.50;101912.13;4996788;28;20034;-79
2021/09/23 06:47:55;;;;;;;17.45;5.13;;;;;;;19.48;61.26;101907.28;5041689;28;20048;-80
2021/09/23 06:50:21;;;;;;;24.50;6.57;;;;;;;19.60;61.72;101904.81;5004676;28;20057;-80
2021/09/23 06:52:46;;;;;;;26.85;6.88;;;;;;;19.86;61.47;101912.03;5009609;28;20179;-80
2021/09/23 06:55:13;;;;;;;32.45;12.80;;;;;;;19.06;65.20;101906.25;4997510;28;20044;-78
2021/09/23 06:57:38;;;;;;;24.13;12.15;;;;;;;18.94;66.10;101905.19;4993714;28;20033;-78
2021/09/23 07:00:05;;;;;;;25.58;14.55;;;;;;;18.41;69.82;101895.88;5031225;28;20080;-79
2021/09/23 07:02:30;;;;;;;29.27;16.40;;;;;;;18.84;67.56;101896.06;5007248;28;20244;-79
2021/09/23 07:04:55;;;;;;;27.00;15.32;;;;;;;18.94;66.99;101896.41;5039602;28;20037;-80
2021/09/23 07:07:21;;;;;;;32.30;10.48;;;;;;;19.50;64.87;101892.09;5035367;28;20040;-78
2021/09/23 07:09:47;;;;;;;39.25;10.82;;;;;;;19.66;64.49;101889.31;4998496;28;20025;-78
2021/09/23 07:12:13;;;;;;;32.88;12.38;;;;;;;19.69;64.50;101889.16;5011830;28;20055;-78
2021/09/23 07:14:38;;;;;;;39.53;12.07;;;;;;;19.51;65.28;101880.50;5001119;28;20041;-78
2021/09/23 07:17:04;;;;;;;31.08;11.38;;;;;;;19.39;65.92;101886.56;5014428;28;20266;-78
2021/09/23 07:19:30;;;;;;;28.02;11.38;;;;;;;19.80;64.25;101883.19;5015595;28;20039;-77
2021/09/23 07:21:56;;;;;;;31.73;12.27;;;;;;;19.33;65.95;101879.00;4983387;28;20044;-78
2021/09/23 07:24:23;;;;;;;19.20;13.48;;;;;;;19.55;65.67;101875.88;4999171;28;20036;-78
2021/09/23 07:26:48;;;;;;;43.80;9.48;;;;;;;20.34;62.54;101869.09;5013260;28;20044;-78
2021/09/23 07:29:15;;;;;;;27.30;11.48;;;;;;;20.53;62.12;101871.38;4980544;28;20041;-78
2021/09/23 07:31:42;;;;;;;27.25;9.18;;;;;;;20.81;61.35;101875.75;5015975;28;20037;-78
2021/09/23 07:34:07;;;;;;;32.35;10.23;;;;;;;20.92;60.64;101874.16;5033382;28;20040;-78
2021/09/23 07:36:33;;;;;;;22.80;9.07;;;;;;;20.75;61.57;101870.00;5032362;28;20038;-78
2021/09/23 07:38:58;;;;;;;26.67;8.60;;;;;;;20.97;60.75;101853.41;5032901;28;20279;-78
2021/09/23 07:41:24;;;;;;;26.75;6.43;;;;;;;21.06;60.54;101850.09;5015699;28;20080;-78
2021/09/23 07:43:49;;;;;;;26.70;7.00;;;;;;;21.22;59.90;101839.25;5015732;28;20033;-78
2021/09/23 07:46:15;;;;;;;12.18;6.00;;;;;;;21.28;59.67;101837.00;4998098;28;20446;-77
2021/09/23 07:48:40;;;;;;;30.48;6.35;;;;;;;21.35;59.04;101834.75;5015484;28;20112;-78
2021/09/23 07:51:06;;;;;;;31.75;5.97;;;;;;;21.56;58.73;101827.09;4999041;28;20044;-78
2021/09/23 07:53:32;;;;;;;20.60;4.47;;;;;;;21.39;58.37;101825.59;4998856;28;20075;-77
2021/09/23 07:55:58;;;;;;;19.48;5.00;;;;;;;21.46;58.50;101812.69;5014463;28;20518;-80
2021/09/23 07:58:23;;;;;;;22.45;5.03;;;;;;;21.75;57.63;101831.09;5015549;28;20037;-80
2021/09/23 08:00:49;;;;;;;20.88;4.82;;;;;;;21.56;57.95;101840.41;4998475;28;20075;-80
2021/09/23 08:03:14;;;;;;;33.97;4.90;;;;;;;21.68;57.97;101846.66;5014278;28;20037;-80
2021/09/23 08:05:40;;;;;;;21.40;5.43;;;;;;;21.60;58.12;101844.56;4997345;28;20033;-80
2021/09/23 08:08:05;;;;;;;17.30;5.38;;;;;;;21.67;58.01;101843.16;5029766;28;20037;-79
2021/09/23 08:10:31;;;;;;;22.73;5.00;;;;;;;21.72;57.83;101845.50;5012628;28;20200;-80
2021/09/23 08:12:56;;;;;;;13.85;4.05;;;;;;;21.61;57.90;101848.06;4998737;28;20853;-78
2021/09/23 08:15:22;;;;;;;22.40;4.70;;;;;;;21.77;57.72;101851.31;4995936;28;20118;-78
2021/09/23 08:17:47;;;;;;;23.15;4.68;;;;;;;21.77;57.03;101863.81;5033617;28;20029;-78
2021/09/23 08:20:13;;;;;;;23.50;4.85;;;;;;;22.14;56.42;101872.66;5030732;28;20221;-79
2021/09/23 08:22:38;;;;;;;13.93;4.40;;;;;;;22.23;56.13;101874.66;5000296;28;20041;-78
2021/09/23 08:25:05;;;;;;;20.67;4.80;;;;;;;21.89;55.81;101872.75;5014033;28;20045;-78
2021/09/23 08:27:30;;;;;;;16.45;4.30;;;;;;;21.78;57.15;101878.84;5016844;28;20056;-79
2021/09/23 08:29:56;;;;;;;18.90;5.15;;;;;;;21.73;57.39;101879.19;4998579;28;20252;-78
2021/09/23 08:32:21;;;;;;;20.40;4.80;;;;;;;21.80;57.09;101895.59;4999307;28;20049;-78
2021/09/23 08:34:47;;;;;;;18.58;4.60;;;;;;;21.75;57.18;101887.06;5015546;28;20085;-78
2021/09/23 08:37:12;;;;;;;19.25;3.88;;;;;;;21.61;57.03;101877.38;4998225;28;20041;-78
2021/09/23 08:39:38;;;;;;;16.63;4.40;;;;;;;21.77;56.83;101872.66;5014512;28;20076;-77
2021/09/23 08:42:04;;;;;;;21.45;4.00;;;;;;;21.69;57.05;101876.84;4999319;28;20060;-78
2021/09/23 08:44:29;;;;;;;34.55;4.32;;;;;;;21.89;56.60;101884.25;5008244;28;20088;-78
2021/09/23 08:46:54;;;;;;;16.63;4.75;;;;;;;21.84;56.57;101897.91;5004937;28;20041;-79
2021/09/23 08:49:20;;;;;;;18.50;3.63;;;;;;;21.67;56.83;101904.47;5023462;28;20036;-77
2021/09/23 08:51:45;;;;;;;9.48;3.20;;;;;;;21.54;57.06;101911.63;4984553;28;20608;-77
2021/09/23 08:54:14;;;;;;;10.38;3.78;;;;;;;21.65;56.90;101906.38;5012651;28;20038;-77
2021/09/23 08:56:39;;;;;;;5.80;3.05;;;;;;;21.90;55.87;101901.09;4988779;28;20034;-78
2021/09/23 08:59:05;;;;;;;13.10;3.90;;;;;;;21.98;55.64;101907.59;5016659;28;20102;-78
2021/09/23 09:01:45;;;;;;;7.07;2.97;;;;;;;21.78;56.14;101905.53;5019946;28;20681;-78
2021/09/23 09:04:10;;;;;;;7.65;3.05;;;;;;;21.80;55.88;101898.25;5011251;28;20029;-77
2021/09/23 09:06:36;;;;;;;10.25;4.05;;;;;;;21.76;55.69;101891.44;5012696;28;20040;-79
2021/09/23 09:09:04;;;;;;;12.60;3.25;;;;;;;21.55;56.28;101883.16;5001019;28;20032;-80
2021/09/23 09:11:30;;;;;;;10.87;3.50;;;;;;;21.62;56.26;101879.09;5004164;28;20030;-78
2021/09/23 09:13:55;;;;;;;11.25;3.33;;;;;;;21.58;56.26;101874.94;5017737;28;20373;-78
2021/09/23 09:16:23;;;;;;;9.55;3.25;;;;;;;21.83;55.53;101877.56;4987214;28;20034;-78
2021/09/23 09:18:51;;;;;;;32.67;4.33;;;;;;;22.76;52.65;101879.63;5021498;28;20036;-80
2021/09/23 09:21:19;;;;;;;21.13;3.70;;;;;;;22.25;54.32;101879.88;5005965;28;20034;-79
2021/09/23 09:23:57;;;;;;;18.43;3.90;;;;;;;22.24;54.22;101878.16;4992930;28;20041;-79
2021/09/23 09:26:26;;;;;;;14.75;3.70;;;;;;;22.24;53.95;101868.34;5017362;28;20029;-79
2021/09/23 09:28:53;;;;;;;14.20;3.97;;;;;;;23.70;49.38;101863.47;5019110;28;20046;-81
2021/09/23 09:31:18;;;;;;;28.10;3.42;;;;;;;22.94;51.29;101852.47;5018041;28;20024;-80
2021/09/23 09:33:45;;;;;;;21.50;2.88;;;;;;;22.14;53.70;101872.66;5016407;28;20369;-79
2021/09/23 09:36:33;;;;;;;15.75;3.38;;;;;;;21.91;54.32;101869.00;5020962;28;20100;-79
2021/09/23 09:39:04;;;;;;;25.13;3.00;;;;;;;21.96;54.69;101871.34;5009358;28;20056;-79
2021/09/23 09:41:32;;;;;;;13.02;3.15;;;;;;;21.88;54.81;101871.88;4998673;28;20392;-79
2021/09/23 09:43:58;;;;;;;19.58;3.50;;;;;;;21.86;54.90;101876.47;5007334;28;20230;-79
2021/09/23 09:46:31;;;;;;;12.45;2.90;;;;;;;21.57;55.49;101871.41;5005189;28;20437;-79
2021/09/23 09:48:57;;;;;;;16.17;3.05;;;;;;;21.83;55.03;101887.38;5008549;28;20026;-79
2021/09/23 09:51:24;;;;;;;8.20;2.85;;;;;;;21.75;54.23;101881.75;4999368;28;20043;-79
2021/09/23 09:53:57;;;;;;;21.63;3.45;;;;;;;21.70;55.32;101881.22;4995430;28;20029;-79
2021/09/23 09:56:23;;;;;;;16.38;2.88;;;;;;;21.87;54.61;101878.19;5018330;28;20025;-78
2021/09/23 09:59:12;;;;;;;9.45;2.72;;;;;;;21.41;55.40;101884.09;5006607;28;20125;-79
2021/09/23 10:01:38;;;;;;;12.27;2.50;;;;;;;21.49;55.55;101884.44;5010375;28;20045;-79
2021/09/23 10:04:04;;;;;;;11.85;3.20;;;;;;;21.81;54.94;101887.50;5013535;28;20033;-79
2021/09/23 10:06:30;;;;;;;12.05;2.72;;;;;;;22.36;53.34;101892.47;5010011;28;20034;-78
2021/09/23 10:08:56;;;;;;;14.13;3.40;;;;;;;21.86;54.77;101884.47;5016496;28;20092;-79
2021/09/23 10:11:21;;;;;;;4.45;2.53;;;;;;;21.65;55.19;101885.06;5015965;28;20317;-77
2021/09/23 10:13:46;;;;;;;13.43;3.13;;;;;;;21.76;55.31;101888.78;5003501;28;20384;-78
2021/09/23 10:16:12;;;;;;;9.32;2.72;;;;;;;21.93;54.61;101884.91;5021768;28;20042;-78
2021/09/23 10:18:38;;;;;;;6.65;2.60;;;;;;;23.04;51.79;101882.88;5000000;28;20099;-78
2021/09/23 10:21:03;;;;;;;6.15;2.70;;;;;;;24.26;47.22;101887.47;5000868;28;20234;-78
2021/09/23 10:23:31;;;;;;;11.38;2.45;;;;;;;24.25;47.41;101890.25;4996306;28;20312;-80
2021/09/23 10:25:59;;;;;;;16.55;2.70;;;;;;;23.23;49.66;101890.34;4993219;28;20034;-78
2021/09/23 10:28:24;;;;;;;7.07;2.85;;;;;;;23.40;49.77;101897.03;4992105;28;20153;-79
2021/09/23 10:30:51;;;;;;;15.80;3.33;;;;;;;24.78;46.72;101894.84;5002914;28;20360;-79
2021/09/23 10:33:16;;;;;;;9.98;3.10;;;;;;;25.09;45.48;101883.19;5005103;28;20041;-78
2021/09/23 10:35:41;;;;;;;9.77;2.70;;;;;;;25.14;45.67;101881.94;5021659;28;20098;-77
2021/09/23 10:38:08;;;;;;;6.95;2.80;;;;;;;25.34;44.71;101882.94;4995181;28;20336;-78
2021/09/23 10:40:35;;;;;;;11.45;3.35;;;;;;;25.74;44.24;101879.41;5011998;28;20455;-78
2021/09/23 10:43:13;;;;;;;7.43;2.80;;;;;;;25.85;43.41;101866.75;5014681;28;20042;-77
2021/09/23 10:45:39;;;;;;;8.25;2.78;;;;;;;25.13;44.70;101856.97;5000907;28;20033;-77
2021/09/23 10:48:05;;;;;;;16.02;2.90;;;;;;;25.90;43.57;101868.16;5009390;28;20048;-78
2021/09/23 10:50:32;;;;;;;12.23;2.80;;;;;;;25.55;44.81;101864.97;5023895;28;20049;-77
2021/09/23 10:52:58;;;;;;;10.30;2.40;;;;;;;25.26;45.41;101860.31;5017904;28;20050;-78
2021/09/23 10:55:25;;;;;;;7.63;2.60;;;;;;;25.10;45.45;101862.59;5022238;28;20194;-77
2021/09/23 10:57:51;;;;;;;9.98;2.88;;;;;;;25.09;45.77;101856.41;5014015;28;20041;-78
2021/09/23 11:00:20;;;;;;;11.10;2.28;;;;;;;23.71;48.98;101859.84;5021897;28;20056;-79
2021/09/23 11:02:45;;;;;;;;;;;;;;;23.71;48.72;101849.13;4988009;28;20321;-80
2021/09/23 11:05:13;;;;;;;8.47;2.40;;;;;;;23.36;49.86;101842.13;5023292;28;19917;-81
2021/09/23 11:07:43;;;;;;;13.27;3.88;;;;;;;22.98;50.86;101852.13;5006564;28;20284;-80
2021/09/23 11:10:24;;;;;;;4.97;2.55;;;;;;;22.62;51.94;101837.13;5004900;28;20228;-80
2021/09/23 11:12:54;;;;;;;13.20;3.00;;;;;;;22.17;52.52;101831.56;5010403;28;20109;-80
2021/09/23 11:15:22;;;;;;;8.50;2.30;;;;;;;22.10;52.85;101823.16;5007265;28;20049;-79
2021/09/23 11:17:47;;;;;;;15.80;2.13;;;;;;;21.77;53.51;101821.16;5031072;28;20216;-80